createdAt,value
2022-10-21T00:00:29.661Z,52.47
2022-10-21T00:02:59.491Z,47.03
2022-10-21T00:05:28.519Z,52.60
2022-10-21T00:07:57.301Z,49.90
2022-10-21T00:10:26.407Z,47.65
2022-10-21T00:12:54.727Z,51.10
2022-10-21T00:15:23.276Z,49.28
2022-10-21T00:17:53.246Z,45.13
2022-10-21T00:22:51.390Z,48.30
2022-10-21T00:25:20.863Z,44.95
2022-10-21T00:27:49.837Z,46.22
2022-10-21T00:30:19.748Z,50.55
2022-10-21T00:32:48.629Z,47.38
2022-10-21T00:35:18.682Z,45.10
2022-10-21T00:37:47.475Z,46.92
2022-10-21T00:40:18.084Z,53.85
2022-10-21T00:42:49.327Z,43.85
2022-10-21T00:45:23.804Z,49.80
2022-10-21T00:47:59.205Z,47.67
2022-10-21T00:50:41.783Z,49.38
2022-10-21T00:53:17.079Z,48.50
2022-10-21T00:55:53.324Z,48.25
2022-10-21T00:58:29.757Z,48.92
2022-10-21T01:01:04.030Z,42.25
2022-10-21T01:03:36.935Z,46.22
2022-10-21T01:06:11.979Z,52.15
2022-10-21T01:08:41.362Z,51.45
2022-10-21T01:11:18.754Z,43.42
2022-10-21T01:14:08.606Z,40.63
2022-10-21T01:16:48.940Z,48.50
2022-10-21T01:19:53.514Z,50.60
2022-10-21T01:22:49.130Z,48.10
2022-10-21T01:25:49.565Z,48.10
2022-10-21T01:28:30.779Z,45.15
2022-10-21T01:31:03.293Z,46.55
2022-10-21T01:33:44.617Z,41.60
2022-10-21T01:36:52.668Z,40.63
2022-10-21T01:39:31.666Z,48.00
2022-10-21T01:42:07.263Z,39.85
2022-10-21T01:44:46.057Z,42.90
2022-10-21T01:47:22.331Z,41.05
2022-10-21T01:49:57.546Z,39.08
2022-10-21T01:52:27.139Z,37.35
2022-10-21T01:55:00.389Z,38.38
2022-10-21T01:57:34.962Z,41.63
2022-10-21T02:00:06.260Z,42.07
2022-10-21T02:02:44.649Z,39.83
2022-10-21T02:05:22.735Z,42.78
2022-10-21T02:12:07.106Z,43.05
2022-10-21T02:14:41.023Z,42.53
2022-10-21T02:17:14.919Z,43.22
2022-10-21T02:19:47.239Z,46.92
2022-10-21T02:22:22.228Z,47.22
2022-10-21T02:24:55.707Z,50.38
2022-10-21T02:27:26.000Z,48.03
2022-10-21T02:30:02.006Z,49.17
2022-10-21T02:32:39.190Z,44.65
2022-10-21T02:35:24.432Z,46.03
2022-10-21T02:38:04.894Z,51.47
2022-10-21T02:40:39.142Z,60.40
2022-10-21T02:43:13.421Z,52.08
2022-10-21T02:45:42.985Z,51.45
2022-10-21T02:48:14.038Z,55.40
2022-10-21T02:50:44.467Z,55.45
2022-10-21T02:53:14.647Z,52.25
2022-10-21T02:55:47.875Z,58.47
2022-10-21T02:58:17.718Z,55.55
2022-10-21T03:00:47.005Z,62.38
2022-10-21T03:03:18.161Z,63.55
2022-10-21T03:06:00.376Z,63.50
2022-10-21T03:08:29.546Z,60.40
2022-10-21T03:10:59.907Z,66.53
2022-10-21T03:13:30.014Z,63.65
2022-10-21T03:15:59.405Z,57.67
2022-10-21T03:18:30.201Z,70.55
2022-10-21T03:21:01.019Z,66.70
2022-10-21T03:23:31.950Z,57.67
2022-10-21T03:26:00.389Z,65.10
2022-10-21T03:28:30.435Z,64.78
2022-10-21T03:30:59.477Z,73.05
2022-10-21T03:33:31.793Z,64.85
2022-10-21T03:36:03.524Z,63.70
2022-10-21T03:38:33.957Z,67.68
2022-10-21T03:41:03.907Z,64.78
2022-10-21T03:43:32.553Z,65.07
2022-10-21T03:46:01.074Z,68.07
2022-10-21T03:48:29.983Z,64.82
2022-10-21T03:50:58.571Z,60.08
2022-10-21T03:53:42.818Z,61.63
2022-10-21T03:56:16.873Z,72.88
2022-10-21T03:58:47.099Z,67.53
2022-10-21T04:01:16.335Z,66.93
2022-10-21T04:03:45.183Z,63.90
2022-10-21T04:06:14.417Z,66.15
2022-10-21T04:08:44.531Z,58.05
2022-10-21T04:11:19.660Z,67.70
2022-10-21T04:13:48.516Z,70.75
2022-10-21T04:16:20.521Z,62.97
2022-10-21T04:18:54.502Z,65.90
2022-10-21T04:23:54.719Z,59.38
2022-10-21T04:26:24.193Z,59.83
2022-10-21T04:28:52.943Z,68.75
2022-10-21T04:31:21.973Z,63.00
2022-10-21T04:33:51.926Z,59.17
2022-10-21T04:36:20.507Z,62.35
2022-10-21T04:38:50.240Z,55.67
2022-10-21T04:41:22.189Z,60.58
2022-10-21T04:43:50.726Z,60.53
2022-10-21T04:46:21.888Z,61.60
2022-10-21T04:48:50.496Z,66.20
2022-10-21T04:51:19.741Z,62.47
2022-10-21T04:53:48.491Z,62.92
2022-10-21T04:56:17.325Z,67.05
2022-10-21T04:58:47.694Z,74.35
2022-10-21T05:01:19.103Z,66.20
2022-10-21T05:03:47.967Z,68.30
2022-10-21T05:06:17.486Z,73.50
2022-10-21T05:08:46.111Z,67.70
2022-10-21T05:11:15.262Z,65.55
2022-10-21T05:13:44.106Z,68.63
2022-10-21T05:16:14.271Z,72.90
2022-10-21T05:18:42.912Z,66.40
2022-10-21T05:21:11.885Z,68.20
2022-10-21T05:23:41.273Z,72.93
2022-10-21T05:26:11.884Z,78.68
2022-10-21T05:28:41.330Z,70.60
2022-10-21T05:31:10.142Z,67.03
2022-10-21T05:33:40.428Z,76.00
2022-10-21T05:36:10.770Z,76.95
2022-10-21T05:38:40.467Z,76.63
2022-10-21T05:41:11.022Z,71.10
2022-10-21T05:43:41.887Z,73.47
2022-10-21T05:46:10.839Z,76.40
2022-10-21T05:48:42.620Z,76.45
2022-10-21T05:51:13.383Z,62.38
2022-10-21T05:53:43.425Z,70.78
2022-10-21T05:56:12.922Z,73.35
2022-10-21T05:58:43.338Z,69.45
2022-10-21T06:01:13.835Z,77.15
2022-10-21T06:03:44.266Z,67.00
2022-10-21T06:06:16.869Z,73.00
2022-10-21T06:08:45.760Z,62.97
2022-10-21T06:11:16.339Z,77.55
2022-10-21T06:13:45.223Z,66.47
2022-10-21T06:16:16.224Z,72.78
2022-10-21T06:18:47.238Z,64.03
2022-10-21T06:21:16.934Z,66.15
2022-10-21T06:23:45.770Z,66.55
2022-10-21T06:26:17.428Z,68.90
2022-10-21T06:28:46.248Z,62.75
2022-10-21T06:31:18.788Z,65.60
2022-10-21T06:33:49.102Z,64.05
2022-10-21T06:36:18.461Z,60.42
2022-10-21T06:38:47.313Z,58.80
2022-10-21T06:41:18.361Z,66.47
2022-10-21T06:43:47.911Z,62.83
2022-10-21T06:46:18.255Z,61.28
2022-10-21T06:48:48.951Z,63.33
2022-10-21T06:51:20.555Z,60.65
2022-10-21T06:53:52.953Z,58.33
2022-10-21T06:56:26.322Z,64.05
2022-10-21T06:58:57.327Z,73.25
2022-10-21T07:01:34.530Z,57.03
2022-10-21T07:04:11.957Z,55.92
2022-10-21T07:06:41.346Z,67.47
2022-10-21T07:09:11.514Z,58.88
2022-10-21T07:11:40.375Z,55.17
2022-10-21T07:14:09.478Z,59.22
2022-10-21T07:16:39.455Z,63.47
2022-10-21T07:19:11.535Z,57.47
2022-10-21T07:21:41.658Z,60.47
2022-10-21T07:24:12.018Z,59.20
2022-10-21T07:26:44.223Z,61.15
2022-10-21T07:29:14.160Z,59.92
2022-10-21T07:31:44.015Z,60.38
2022-10-21T07:34:15.230Z,67.05
2022-10-21T07:36:49.444Z,57.30
2022-10-21T07:39:21.945Z,57.28
2022-10-21T07:41:53.286Z,53.13
2022-10-21T07:44:25.722Z,56.35
2022-10-21T07:46:57.768Z,55.78
2022-10-21T07:49:30.273Z,57.80
2022-10-21T07:51:59.125Z,55.28
2022-10-21T07:54:31.088Z,52.47
2022-10-21T07:56:59.892Z,56.85
2022-10-21T07:59:28.687Z,51.17
2022-10-21T08:01:58.071Z,50.92
2022-10-21T08:04:33.276Z,53.60
2022-10-21T08:07:02.428Z,52.25
2022-10-21T08:09:39.350Z,46.97
2022-10-21T08:12:10.387Z,48.75
2022-10-21T08:14:41.663Z,51.97
2022-10-21T08:17:10.136Z,48.63
2022-10-21T08:19:40.644Z,49.97
2022-10-21T08:22:12.064Z,39.65
2022-10-21T08:24:42.374Z,39.42
2022-10-21T08:27:11.092Z,37.70
2022-10-21T08:29:40.906Z,34.90
2022-10-21T08:32:12.732Z,41.20
2022-10-21T08:34:49.270Z,35.72
2022-10-21T08:37:19.210Z,36.58
2022-10-21T08:39:50.866Z,32.13
2022-10-21T08:42:20.915Z,35.33
2022-10-21T08:44:57.823Z,30.75
2022-10-21T08:47:45.760Z,29.90
2022-10-21T08:50:30.552Z,32.40
2022-10-21T08:53:06.610Z,34.92
2022-10-21T08:55:40.382Z,30.52
2022-10-21T08:58:21.233Z,29.45
2022-10-21T09:00:55.899Z,31.00
2022-10-21T09:03:32.858Z,30.38
2022-10-21T09:06:22.576Z,28.77
2022-10-21T09:09:08.376Z,29.45
2022-10-21T09:14:51.178Z,25.88
2022-10-21T09:17:49.094Z,26.63
2022-10-21T09:20:31.884Z,34.30
2022-10-21T09:23:27.027Z,26.55
2022-10-21T09:26:03.280Z,27.45
2022-10-21T09:28:32.766Z,27.17
2022-10-21T09:31:05.506Z,23.98
2022-10-21T09:33:38.199Z,25.30
2022-10-21T09:36:14.944Z,24.85
2022-10-21T09:38:59.061Z,24.52
2022-10-21T09:41:34.150Z,22.90
2022-10-21T09:44:02.981Z,21.80
2022-10-21T09:46:40.039Z,25.73
2022-10-21T09:52:23.867Z,22.67
2022-10-21T09:54:54.663Z,23.38
2022-10-21T09:57:37.306Z,21.55
2022-10-21T10:00:11.119Z,25.08
2022-10-21T10:02:46.234Z,16.13
2022-10-21T10:05:43.911Z,21.23
2022-10-21T10:08:34.514Z,23.92
2022-10-21T10:11:17.556Z,21.13
2022-10-21T10:13:50.158Z,20.02
2022-10-21T10:16:29.024Z,17.63
2022-10-21T10:19:25.849Z,19.52
2022-10-21T10:22:14.946Z,14.98
2022-10-21T10:24:45.663Z,17.67
2022-10-21T10:27:23.610Z,18.98
2022-10-21T10:29:58.627Z,19.15
2022-10-21T10:32:31.974Z,19.67
2022-10-21T10:35:04.919Z,23.58
2022-10-21T10:37:39.070Z,22.10
2022-10-21T10:40:13.950Z,21.65
2022-10-21T10:42:47.903Z,25.08
2022-10-21T10:45:22.062Z,15.60
2022-10-21T10:47:57.703Z,15.15
2022-10-21T10:50:48.724Z,18.00
2022-10-21T10:53:41.476Z,24.00
2022-10-21T10:56:33.529Z,18.30
2022-10-21T11:03:42.573Z,20.02
2022-10-21T11:06:20.884Z,15.10
2022-10-21T11:08:57.229Z,18.10
2022-10-21T11:11:35.965Z,13.45
2022-10-21T11:14:05.748Z,13.13
2022-10-21T11:17:00.553Z,16.55
2022-10-21T11:19:51.386Z,9.93
2022-10-21T11:22:36.486Z,16.40
2022-10-21T11:25:23.602Z,19.30
2022-10-21T11:28:21.673Z,15.90
2022-10-21T11:31:11.076Z,18.63
2022-10-21T11:33:52.668Z,14.25
2022-10-21T11:36:35.034Z,14.32
2022-10-21T11:39:46.277Z,14.77
2022-10-21T11:42:25.436Z,14.20
2022-10-21T11:45:14.819Z,16.48
2022-10-21T11:47:51.622Z,16.75
2022-10-21T11:50:32.450Z,19.05
2022-10-21T11:53:29.747Z,12.80
2022-10-21T11:56:09.425Z,14.02
2022-10-21T11:58:54.827Z,16.67
2022-10-21T12:01:38.140Z,12.70
2022-10-21T12:04:26.624Z,11.77
2022-10-21T12:07:12.661Z,14.40
2022-10-21T12:09:49.338Z,9.38
2022-10-21T12:12:22.903Z,9.57
2022-10-21T12:14:59.455Z,11.75
2022-10-21T12:17:28.630Z,13.23
2022-10-21T12:20:02.336Z,12.88
2022-10-21T12:22:34.567Z,12.48
2022-10-21T12:25:22.198Z,9.07
2022-10-21T12:27:59.124Z,15.07
2022-10-21T12:30:38.856Z,10.20
2022-10-21T12:33:18.743Z,14.82
2022-10-21T12:35:53.438Z,8.40
2022-10-21T12:38:44.792Z,11.10
2022-10-21T12:41:34.971Z,14.35
2022-10-21T12:44:28.375Z,16.73
2022-10-21T12:47:04.556Z,12.30
2022-10-21T12:49:36.372Z,12.05
2022-10-21T12:52:12.474Z,9.20
2022-10-21T12:54:56.924Z,10.98
2022-10-21T12:57:31.940Z,13.40
2022-10-21T13:00:43.157Z,15.02
2022-10-21T13:03:14.473Z,13.82
2022-10-21T13:06:05.707Z,6.70
2022-10-21T13:08:57.622Z,10.40
2022-10-21T13:11:40.618Z,11.02
2022-10-21T13:14:45.120Z,8.15
2022-10-21T13:17:56.197Z,12.80
2022-10-21T13:20:47.643Z,9.80
2022-10-21T13:23:42.626Z,13.77
2022-10-21T13:26:30.363Z,15.65
2022-10-21T13:29:19.522Z,13.93
2022-10-21T13:32:09.672Z,14.18
2022-10-21T13:34:42.258Z,10.23
2022-10-21T13:37:16.287Z,11.07
2022-10-21T13:39:45.323Z,14.25
2022-10-21T13:42:18.291Z,9.60
2022-10-21T13:44:54.959Z,11.75
2022-10-21T13:47:33.012Z,9.40
2022-10-21T13:53:36.567Z,9.48
2022-10-21T13:56:08.429Z,12.23
2022-10-21T13:58:40.910Z,12.63
2022-10-21T14:01:11.884Z,12.23
2022-10-21T14:06:30.962Z,10.27
2022-10-21T14:09:08.753Z,8.82
2022-10-21T14:11:47.074Z,8.75
2022-10-21T14:14:20.668Z,11.88
2022-10-21T14:16:55.260Z,8.45
2022-10-21T14:19:30.685Z,7.65
2022-10-21T14:22:03.450Z,11.77
2022-10-21T14:24:40.185Z,8.80
2022-10-21T14:27:13.055Z,13.13
2022-10-21T14:29:44.371Z,15.73
2022-10-21T14:32:21.608Z,13.52
2022-10-21T14:35:08.206Z,8.82
2022-10-21T14:37:44.368Z,8.88
2022-10-21T14:40:24.500Z,15.75
2022-10-21T14:42:56.789Z,10.82
2022-10-21T14:45:29.750Z,8.02
2022-10-21T14:48:12.977Z,8.50
2022-10-21T14:50:44.990Z,11.05
2022-10-21T14:53:19.735Z,9.02
2022-10-21T14:55:54.986Z,8.05
2022-10-21T15:00:59.965Z,12.20
2022-10-21T15:03:40.327Z,7.70
2022-10-21T15:06:17.102Z,9.13
2022-10-21T15:09:00.180Z,7.03
2022-10-21T15:11:42.218Z,6.32
2022-10-21T15:14:35.038Z,6.93
2022-10-21T15:17:11.258Z,7.03
2022-10-21T15:19:48.104Z,7.75
2022-10-21T15:22:29.592Z,6.82
2022-10-21T15:25:06.934Z,9.27
2022-10-21T15:27:42.925Z,11.40
2022-10-21T15:30:19.783Z,8.80
2022-10-21T15:32:49.135Z,12.20
2022-10-21T15:35:22.367Z,6.15
2022-10-21T15:37:57.621Z,12.40
2022-10-21T15:43:08.805Z,10.15
2022-10-21T15:45:38.431Z,6.18
2022-10-21T15:48:10.997Z,10.63
2022-10-21T15:50:42.906Z,5.85
2022-10-21T15:53:14.847Z,7.13
2022-10-21T15:55:43.660Z,11.25
2022-10-21T15:58:13.235Z,10.48
2022-10-21T16:00:41.852Z,10.90
2022-10-21T16:03:10.714Z,11.90
2022-10-21T16:05:40.133Z,6.63
2022-10-21T16:08:11.971Z,8.63
2022-10-21T16:10:48.138Z,8.90
2022-10-21T16:13:17.690Z,5.93
2022-10-21T16:15:47.853Z,10.98
2022-10-21T16:18:22.683Z,11.38
2022-10-21T16:20:54.524Z,10.48
2022-10-21T16:23:26.579Z,11.27
2022-10-21T16:26:00.141Z,8.13
2022-10-21T16:28:29.664Z,12.05
2022-10-21T16:30:59.659Z,10.90
2022-10-21T16:33:30.376Z,11.65
2022-10-21T16:35:59.110Z,13.75
2022-10-21T16:38:28.531Z,9.88
2022-10-21T16:40:58.551Z,8.32
2022-10-21T16:43:27.143Z,7.47
2022-10-21T16:45:56.108Z,9.85
2022-10-21T16:48:24.482Z,11.68
2022-10-21T16:50:58.193Z,10.55
2022-10-21T16:53:34.452Z,9.15
2022-10-21T16:56:06.441Z,13.18
2022-10-21T16:58:37.617Z,9.63
2022-10-21T17:01:07.292Z,9.32
2022-10-21T17:03:36.163Z,11.55
2022-10-21T17:06:04.852Z,10.15
2022-10-21T17:08:33.643Z,10.57
2022-10-21T17:11:06.263Z,9.38
2022-10-21T17:13:36.270Z,9.43
2022-10-21T17:16:05.447Z,13.18
2022-10-21T17:18:35.448Z,14.90
2022-10-21T17:21:08.743Z,8.93
2022-10-21T17:26:09.797Z,14.32
2022-10-21T17:28:39.820Z,12.73
2022-10-21T17:31:09.411Z,17.85
2022-10-21T17:33:38.278Z,16.42
2022-10-21T17:36:09.083Z,11.95
2022-10-21T17:38:38.303Z,12.73
2022-10-21T17:41:09.001Z,15.77
2022-10-21T17:43:39.793Z,12.65
2022-10-21T17:46:17.754Z,16.02
2022-10-21T17:48:52.005Z,15.13
2022-10-21T17:51:23.151Z,18.00
2022-10-21T17:53:52.717Z,15.63
2022-10-21T17:56:28.733Z,19.30
2022-10-21T17:58:59.179Z,19.80
2022-10-21T18:01:28.923Z,19.73
2022-10-21T18:04:00.387Z,18.35
2022-10-21T18:06:34.027Z,17.50
2022-10-21T18:09:03.817Z,21.67
2022-10-21T18:11:33.846Z,22.83
2022-10-21T18:14:02.386Z,25.75
2022-10-21T18:16:36.507Z,18.42
2022-10-21T18:19:05.252Z,17.67
2022-10-21T18:21:33.798Z,18.33
2022-10-21T18:24:03.108Z,19.67
2022-10-21T18:26:34.897Z,14.85
2022-10-21T18:29:06.517Z,18.40
2022-10-21T18:31:37.986Z,18.75
2022-10-21T18:34:09.928Z,18.63
2022-10-21T18:36:39.138Z,18.17
2022-10-21T18:39:07.937Z,19.90
2022-10-21T18:41:38.714Z,19.02
2022-10-21T18:44:11.828Z,13.95
2022-10-21T18:46:46.634Z,17.98
2022-10-21T18:49:18.636Z,17.67
2022-10-21T18:51:47.379Z,15.10
2022-10-21T18:54:15.897Z,18.27
2022-10-21T18:56:46.307Z,10.93
2022-10-21T18:59:15.691Z,12.60
2022-10-21T19:01:47.709Z,13.35
2022-10-21T19:04:16.805Z,14.55
2022-10-21T19:06:47.789Z,12.90
2022-10-21T19:09:19.882Z,17.63
2022-10-21T19:11:51.362Z,14.38
2022-10-21T19:14:21.364Z,16.25
2022-10-21T19:16:57.035Z,13.80
2022-10-21T19:19:26.127Z,14.02
2022-10-21T19:21:55.092Z,13.68
2022-10-21T19:24:28.486Z,15.15
2022-10-21T19:27:00.641Z,10.38
2022-10-21T19:29:32.570Z,13.27
2022-10-21T19:32:01.148Z,18.55
2022-10-21T19:34:29.954Z,12.73
2022-10-21T19:36:58.847Z,11.73
2022-10-21T19:39:27.334Z,15.77
2022-10-21T19:41:57.420Z,9.63
2022-10-21T19:44:27.855Z,11.70
2022-10-21T19:46:57.070Z,14.10
2022-10-21T19:49:25.706Z,12.95
2022-10-21T19:51:54.768Z,20.48
2022-10-21T19:54:24.368Z,13.60
2022-10-21T19:56:56.298Z,18.20
2022-10-21T19:59:27.665Z,17.67
2022-10-21T20:01:57.594Z,15.02
2022-10-21T20:04:26.556Z,12.80
2022-10-21T20:06:55.711Z,14.50
2022-10-21T20:09:24.867Z,10.13
2022-10-21T20:11:55.603Z,14.57
2022-10-21T20:14:28.291Z,14.93
2022-10-21T20:16:57.981Z,15.45
2022-10-21T20:19:29.280Z,13.15
2022-10-21T20:21:59.786Z,13.95
2022-10-21T20:24:29.055Z,14.95
2022-10-21T20:27:01.215Z,13.50
2022-10-21T20:29:32.872Z,11.65
2022-10-21T20:32:02.931Z,13.95
2022-10-21T20:34:34.066Z,12.82
2022-10-21T20:37:07.443Z,15.70
2022-10-21T20:39:37.543Z,12.88
2022-10-21T20:42:06.147Z,11.70
2022-10-21T20:44:36.093Z,12.90
2022-10-21T20:47:04.639Z,12.75
2022-10-21T20:49:36.976Z,11.02
2022-10-21T20:52:06.345Z,13.77
2022-10-21T20:54:35.159Z,13.02
2022-10-21T20:57:05.305Z,14.57
2022-10-21T20:59:37.865Z,15.68
2022-10-21T21:04:43.355Z,16.38
2022-10-21T21:07:14.771Z,15.88
2022-10-21T21:10:01.587Z,12.18
2022-10-21T21:12:32.231Z,14.70
2022-10-21T21:15:02.661Z,16.10
2022-10-21T21:17:32.296Z,14.93
2022-10-21T21:20:02.742Z,12.55
2022-10-21T21:22:32.412Z,9.85
2022-10-21T21:25:02.089Z,9.70
2022-10-21T21:27:32.461Z,9.95
2022-10-21T21:32:33.195Z,17.40
2022-10-21T21:35:05.135Z,14.93
2022-10-21T21:37:34.973Z,17.02
2022-10-21T21:40:03.635Z,16.10
2022-10-21T21:42:32.609Z,12.30
2022-10-21T21:45:04.052Z,14.32
2022-10-21T21:47:35.780Z,14.52
2022-10-21T21:50:05.281Z,14.93
2022-10-21T21:52:35.032Z,11.93
2022-10-21T21:55:03.497Z,13.05
2022-10-21T21:57:32.450Z,12.43
2022-10-21T22:00:04.706Z,13.55
2022-10-21T22:02:36.728Z,11.20
2022-10-21T22:05:09.052Z,12.10
2022-10-21T22:07:40.903Z,12.15
2022-10-21T22:10:11.231Z,14.43
2022-10-21T22:12:40.987Z,14.20
2022-10-21T22:15:35.746Z,12.00
2022-10-21T22:18:03.887Z,15.35
2022-10-21T22:20:34.492Z,14.05
2022-10-21T22:23:03.818Z,11.05
2022-10-21T22:25:32.624Z,8.55
2022-10-21T22:28:01.268Z,12.43
2022-10-21T22:30:35.369Z,13.07
2022-10-21T22:33:07.648Z,12.85
2022-10-21T22:35:38.784Z,13.35
2022-10-21T22:38:08.332Z,13.48
2022-10-21T22:40:36.879Z,12.32
2022-10-21T22:43:05.263Z,14.43
2022-10-21T22:45:36.193Z,15.55
2022-10-21T22:48:05.030Z,13.15
2022-10-21T22:50:35.547Z,12.63
2022-10-21T22:53:07.113Z,11.63
2022-10-21T22:55:36.682Z,12.82
2022-10-21T22:58:05.692Z,16.15
2022-10-21T23:00:39.183Z,12.40
2022-10-21T23:03:09.722Z,7.82
2022-10-21T23:05:40.893Z,14.88
2022-10-21T23:08:09.645Z,10.07
2022-10-21T23:10:38.946Z,13.68
2022-10-21T23:13:07.925Z,11.13
2022-10-21T23:15:38.733Z,10.57
2022-10-21T23:18:07.950Z,10.57
2022-10-21T23:20:36.824Z,11.95
2022-10-21T23:23:06.441Z,12.73
2022-10-21T23:25:34.927Z,9.88
2022-10-21T23:28:05.443Z,12.68
2022-10-21T23:30:36.518Z,9.65
2022-10-21T23:33:06.713Z,10.52
2022-10-21T23:35:35.278Z,9.23
2022-10-21T23:38:04.502Z,12.02
2022-10-21T23:40:34.637Z,11.05
2022-10-21T23:43:04.370Z,13.57
2022-10-21T23:45:34.949Z,18.83
2022-10-21T23:48:07.140Z,13.25
2022-10-21T23:50:38.739Z,9.75
2022-10-21T23:53:10.195Z,13.57
2022-10-21T23:55:39.168Z,10.90
2022-10-21T23:58:10.292Z,11.90
